createdAt,value
2022-10-17T00:01:55.213Z,7.99
2022-10-17T00:04:27.119Z,7.93
2022-10-17T00:06:55.206Z,7.97
2022-10-17T00:09:26.777Z,7.88
2022-10-17T00:11:55.183Z,7.92
2022-10-17T00:14:24.192Z,7.94
2022-10-17T00:16:56.259Z,7.84
2022-10-17T00:19:24.701Z,7.91
2022-10-17T00:21:53.165Z,7.93
2022-10-17T00:24:23.136Z,7.94
2022-10-17T00:26:53.575Z,7.95
2022-10-17T00:29:23.606Z,7.87
2022-10-17T00:31:56.269Z,7.98
2022-10-17T00:34:25.693Z,7.87
2022-10-17T00:36:54.167Z,7.91
2022-10-17T00:39:22.225Z,7.82
2022-10-17T00:41:51.998Z,7.80
2022-10-17T00:44:31.496Z,7.76
2022-10-17T00:47:06.207Z,7.76
2022-10-17T00:49:37.142Z,7.66
2022-10-17T00:52:25.621Z,7.68
2022-10-17T00:54:59.222Z,7.66
2022-10-17T00:57:31.778Z,7.65
2022-10-17T01:00:04.764Z,7.76
2022-10-17T01:02:33.776Z,7.73
2022-10-17T01:05:02.379Z,7.71
2022-10-17T01:07:34.923Z,7.77
2022-10-17T01:10:07.799Z,7.78
2022-10-17T01:13:17.896Z,7.81
2022-10-17T01:16:04.248Z,7.67
2022-10-17T01:18:41.337Z,7.78
2022-10-17T01:21:33.186Z,7.75
2022-10-17T01:24:25.925Z,7.67
2022-10-17T01:27:41.325Z,7.61
2022-10-17T01:30:46.226Z,7.55
2022-10-17T01:33:22.979Z,7.46
2022-10-17T01:36:04.746Z,7.39
2022-10-17T01:38:41.163Z,7.35
2022-10-17T01:41:52.154Z,7.37
2022-10-17T01:44:28.582Z,7.37
2022-10-17T01:47:28.139Z,7.30
2022-10-17T01:50:13.225Z,7.13
2022-10-17T01:52:48.313Z,7.14
2022-10-17T01:55:25.816Z,7.12
2022-10-17T01:58:01.737Z,7.16
2022-10-17T02:00:32.210Z,7.14
2022-10-17T02:03:07.582Z,7.10
2022-10-17T02:05:40.371Z,6.96
2022-10-17T02:08:10.149Z,6.95
2022-10-17T02:11:06.410Z,6.90
2022-10-17T02:13:58.811Z,6.96
2022-10-17T02:16:42.815Z,6.87
2022-10-17T02:19:44.974Z,6.87
2022-10-17T02:22:57.086Z,6.77
2022-10-17T02:25:43.620Z,6.76
2022-10-17T02:28:15.007Z,6.76
2022-10-17T02:30:54.493Z,6.66
2022-10-17T02:33:33.232Z,6.60
2022-10-17T02:36:08.848Z,6.63
2022-10-17T02:38:39.100Z,6.56
2022-10-17T02:41:13.825Z,6.56
2022-10-17T02:43:45.521Z,6.52
2022-10-17T02:46:21.854Z,6.56
2022-10-17T02:49:09.210Z,6.55
2022-10-17T02:51:51.669Z,6.44
2022-10-17T02:55:02.515Z,6.50
2022-10-17T02:57:38.370Z,6.53
2022-10-17T03:00:10.120Z,6.54
2022-10-17T03:02:47.010Z,6.56
2022-10-17T03:05:23.084Z,6.55
2022-10-17T03:07:52.826Z,6.49
2022-10-17T03:10:21.825Z,6.59
2022-10-17T03:12:51.131Z,6.56
2022-10-17T03:15:22.571Z,6.51
2022-10-17T03:17:51.406Z,6.48
2022-10-17T03:20:20.335Z,6.46
2022-10-17T03:22:49.204Z,6.47
2022-10-17T03:25:17.306Z,6.55
2022-10-17T03:31:13.842Z,6.48
2022-10-17T03:33:44.131Z,6.52
2022-10-17T03:36:19.364Z,6.43
2022-10-17T03:38:47.241Z,6.52
2022-10-17T03:41:15.521Z,6.38
2022-10-17T03:43:44.828Z,6.30
2022-10-17T03:46:13.731Z,6.30
2022-10-17T03:48:43.529Z,6.32
2022-10-17T03:51:12.601Z,6.26
2022-10-17T03:53:40.067Z,6.25
2022-10-17T03:56:16.531Z,6.21
2022-10-17T03:58:45.926Z,6.11
2022-10-17T04:01:18.107Z,6.16
2022-10-17T04:03:55.378Z,6.13
2022-10-17T04:06:24.470Z,6.12
2022-10-17T04:08:55.640Z,6.16
2022-10-17T04:11:24.839Z,6.10
2022-10-17T04:13:57.999Z,6.09
2022-10-17T04:16:27.417Z,6.05
2022-10-17T04:18:58.578Z,6.04
2022-10-17T04:21:29.126Z,6.07
2022-10-17T04:24:00.914Z,6.18
2022-10-17T04:26:30.322Z,6.23
2022-10-17T04:28:58.635Z,6.25
2022-10-17T04:31:27.592Z,6.30
2022-10-17T04:33:55.576Z,6.23
2022-10-17T04:36:24.991Z,6.18
2022-10-17T04:38:54.852Z,6.23
2022-10-17T04:41:24.225Z,6.26
2022-10-17T04:43:55.192Z,6.23
2022-10-17T04:46:24.326Z,6.25
2022-10-17T04:48:54.042Z,6.33
2022-10-17T04:51:26.655Z,6.39
2022-10-17T04:53:55.587Z,6.35
2022-10-17T04:56:25.346Z,6.44
2022-10-17T04:58:53.683Z,6.47
2022-10-17T05:01:24.811Z,6.48
2022-10-17T05:03:54.953Z,6.46
2022-10-17T05:06:28.475Z,6.63
2022-10-17T05:08:59.061Z,6.65
2022-10-17T05:11:30.018Z,6.72
2022-10-17T05:14:03.528Z,6.92
2022-10-17T05:16:35.966Z,6.94
2022-10-17T05:19:05.571Z,6.95
2022-10-17T05:21:34.900Z,6.94
2022-10-17T05:24:09.542Z,6.97
2022-10-17T05:26:38.132Z,7.17
2022-10-17T05:29:07.081Z,7.19
2022-10-17T05:31:35.581Z,7.26
2022-10-17T05:34:07.040Z,7.32
2022-10-17T05:36:38.628Z,7.41
2022-10-17T05:39:06.583Z,7.59
2022-10-17T05:41:35.546Z,7.69
2022-10-17T05:44:05.588Z,7.87
2022-10-17T05:46:34.780Z,7.98
2022-10-17T05:49:14.661Z,8.12
2022-10-17T05:51:58.244Z,8.24
2022-10-17T05:54:27.352Z,8.37
2022-10-17T05:56:56.446Z,8.48
2022-10-17T05:59:27.154Z,8.62
2022-10-17T06:01:56.202Z,8.78
2022-10-17T06:04:27.997Z,8.97
2022-10-17T06:06:57.435Z,8.99
2022-10-17T06:09:25.580Z,9.21
2022-10-17T06:11:56.395Z,9.25
2022-10-17T06:14:24.334Z,9.42
2022-10-17T06:16:55.684Z,9.48
2022-10-17T06:19:26.385Z,9.54
2022-10-17T06:21:54.545Z,9.68
2022-10-17T06:24:23.678Z,9.95
2022-10-17T06:26:52.776Z,10.03
2022-10-17T06:29:21.578Z,10.13
2022-10-17T06:31:50.521Z,10.14
2022-10-17T06:34:19.586Z,10.10
2022-10-17T06:36:48.866Z,10.29
2022-10-17T06:39:18.189Z,10.44
2022-10-17T06:41:46.645Z,10.53
2022-10-17T06:44:15.312Z,10.49
2022-10-17T06:46:44.327Z,10.63
2022-10-17T06:49:14.735Z,10.84
2022-10-17T06:51:44.533Z,10.98
2022-10-17T06:54:13.812Z,11.06
2022-10-17T06:56:41.557Z,11.20
2022-10-17T06:59:10.964Z,11.23
2022-10-17T07:01:41.825Z,11.41
2022-10-17T07:04:13.564Z,11.49
2022-10-17T07:06:42.482Z,11.36
2022-10-17T07:09:10.725Z,11.65
2022-10-17T07:11:40.963Z,11.84
2022-10-17T07:14:11.880Z,11.86
2022-10-17T07:16:41.959Z,12.06
2022-10-17T07:19:11.353Z,12.21
2022-10-17T07:21:42.178Z,12.26
2022-10-17T07:24:11.444Z,12.39
2022-10-17T07:26:39.719Z,12.66
2022-10-17T07:29:11.649Z,12.79
2022-10-17T07:31:40.062Z,12.83
2022-10-17T07:34:07.689Z,12.99
2022-10-17T07:36:35.548Z,13.18
2022-10-17T07:39:05.239Z,13.28
2022-10-17T07:41:36.285Z,13.50
2022-10-17T07:44:06.146Z,13.35
2022-10-17T07:46:35.931Z,13.46
2022-10-17T07:49:04.615Z,13.68
2022-10-17T07:51:34.153Z,13.71
2022-10-17T07:54:02.581Z,13.93
2022-10-17T07:56:33.579Z,14.04
2022-10-17T07:59:03.878Z,14.13
2022-10-17T08:01:35.966Z,14.14
2022-10-17T08:04:05.512Z,14.18
2022-10-17T08:06:34.544Z,14.22
2022-10-17T08:09:03.895Z,14.24
2022-10-17T08:11:36.147Z,14.49
2022-10-17T08:14:07.156Z,14.69
2022-10-17T08:16:35.842Z,14.82
2022-10-17T08:21:38.283Z,15.19
2022-10-17T08:24:07.699Z,15.21
2022-10-17T08:26:39.204Z,15.42
2022-10-17T08:29:17.167Z,15.42
2022-10-17T08:31:47.857Z,15.53
2022-10-17T08:34:18.686Z,15.51
2022-10-17T08:36:46.563Z,15.79
2022-10-17T08:39:15.334Z,15.93
2022-10-17T08:42:05.442Z,15.88
2022-10-17T08:45:00.855Z,16.19
2022-10-17T08:47:46.139Z,16.26
2022-10-17T08:50:30.878Z,16.41
2022-10-17T08:53:36.769Z,16.47
2022-10-17T08:56:30.369Z,16.52
2022-10-17T08:59:27.081Z,16.73
2022-10-17T09:02:34.963Z,16.55
2022-10-17T09:05:41.644Z,16.61
2022-10-17T09:08:47.736Z,16.69
2022-10-17T09:11:30.821Z,16.58
2022-10-17T09:14:20.282Z,16.76
2022-10-17T09:17:04.288Z,16.79
2022-10-17T09:20:00.835Z,17.03
2022-10-17T09:22:45.310Z,17.06
2022-10-17T09:25:21.032Z,17.09
2022-10-17T09:27:54.267Z,17.33
2022-10-17T09:30:45.630Z,17.53
2022-10-17T09:33:42.161Z,17.52
2022-10-17T09:36:23.245Z,17.41
2022-10-17T09:38:59.894Z,17.76
2022-10-17T09:41:46.913Z,17.72
2022-10-17T09:44:41.579Z,17.92
2022-10-17T09:47:24.920Z,18.01
2022-10-17T09:49:53.243Z,18.11
2022-10-17T09:52:39.681Z,18.21
2022-10-17T09:55:16.863Z,18.44
2022-10-17T09:58:05.726Z,18.46
2022-10-17T10:00:35.492Z,18.41
2022-10-17T10:03:25.928Z,18.70
2022-10-17T10:06:08.576Z,18.78
2022-10-17T10:09:06.026Z,18.73
2022-10-17T10:11:50.161Z,18.72
2022-10-17T10:14:37.676Z,18.99
2022-10-17T10:17:26.370Z,19.10
2022-10-17T10:19:58.046Z,18.88
2022-10-17T10:22:30.894Z,19.12
2022-10-17T10:28:17.855Z,19.37
2022-10-17T10:30:52.790Z,19.25
2022-10-17T10:33:26.250Z,19.27
2022-10-17T10:36:08.090Z,19.10
2022-10-17T10:38:40.985Z,19.13
2022-10-17T10:41:11.878Z,19.21
2022-10-17T10:43:46.632Z,19.19
2022-10-17T10:46:27.540Z,19.09
2022-10-17T10:49:00.206Z,19.34
2022-10-17T10:51:45.166Z,19.38
2022-10-17T10:54:31.093Z,19.46
2022-10-17T10:57:07.453Z,19.50
2022-10-17T11:00:09.837Z,19.67
2022-10-17T11:02:47.910Z,19.69
2022-10-17T11:05:58.164Z,19.64
2022-10-17T11:09:00.438Z,19.76
2022-10-17T11:11:34.600Z,19.47
2022-10-17T11:14:33.023Z,19.57
2022-10-17T11:17:06.408Z,19.39
2022-10-17T11:19:52.080Z,19.49
2022-10-17T11:22:38.799Z,19.42
2022-10-17T11:25:36.661Z,19.24
2022-10-17T11:28:17.212Z,19.17
2022-10-17T11:31:07.134Z,19.25
2022-10-17T11:34:00.172Z,19.22
2022-10-17T11:36:36.826Z,19.23
2022-10-17T11:39:23.110Z,19.14
2022-10-17T11:42:14.569Z,19.24
2022-10-17T11:44:45.464Z,19.24
2022-10-17T11:47:41.557Z,19.25
2022-10-17T11:53:26.269Z,19.19
2022-10-17T11:55:58.228Z,19.18
2022-10-17T11:58:47.216Z,19.34
2022-10-17T12:01:16.271Z,19.19
2022-10-17T12:04:02.174Z,19.42
2022-10-17T12:07:07.741Z,19.42
2022-10-17T12:09:57.336Z,19.58
2022-10-17T12:12:31.365Z,19.73
2022-10-17T12:15:23.631Z,19.86
2022-10-17T12:18:03.386Z,19.76
2022-10-17T12:20:37.598Z,19.86
2022-10-17T12:23:11.634Z,19.88
2022-10-17T12:26:01.595Z,20.08
2022-10-17T12:28:47.724Z,20.18
2022-10-17T12:31:22.596Z,20.34
2022-10-17T12:33:58.535Z,20.59
2022-10-17T12:36:26.502Z,20.62
2022-10-17T12:39:17.839Z,20.90
2022-10-17T12:41:57.031Z,20.98
2022-10-17T12:44:39.381Z,21.34
2022-10-17T12:47:10.213Z,21.73
2022-10-17T12:49:43.233Z,21.98
2022-10-17T12:52:54.681Z,22.35
2022-10-17T12:55:27.436Z,22.76
2022-10-17T12:58:00.344Z,22.80
2022-10-17T13:00:59.580Z,23.10
2022-10-17T13:03:44.963Z,23.30
2022-10-17T13:09:32.864Z,23.18
2022-10-17T13:12:05.665Z,23.30
2022-10-17T13:14:35.278Z,23.38
2022-10-17T13:17:06.761Z,23.54
2022-10-17T13:19:47.073Z,23.66
2022-10-17T13:22:23.977Z,23.54
2022-10-17T13:24:57.124Z,23.51
2022-10-17T13:27:36.605Z,23.44
2022-10-17T13:30:33.951Z,23.69
2022-10-17T13:33:39.462Z,23.02
2022-10-17T13:36:16.273Z,22.93
2022-10-17T13:38:45.613Z,22.48
2022-10-17T13:41:35.225Z,22.26
2022-10-17T13:44:21.420Z,21.83
2022-10-17T13:46:51.276Z,21.38
2022-10-17T13:49:41.880Z,20.90
2022-10-17T13:52:21.018Z,20.34
2022-10-17T13:54:53.947Z,19.94
2022-10-17T13:57:30.215Z,19.51
2022-10-17T14:02:50.605Z,19.00
2022-10-17T14:05:23.699Z,18.75
2022-10-17T14:08:11.758Z,18.46
2022-10-17T14:10:45.956Z,18.23
2022-10-17T14:13:36.206Z,17.75
2022-10-17T14:16:06.264Z,17.64
2022-10-17T14:21:43.825Z,17.17
2022-10-17T14:24:28.409Z,17.09
2022-10-17T14:26:59.860Z,16.94
2022-10-17T14:29:31.730Z,16.74
2022-10-17T14:32:09.091Z,16.50
2022-10-17T14:34:40.955Z,16.33
2022-10-17T14:37:25.167Z,16.24
2022-10-17T14:39:58.185Z,16.01
2022-10-17T14:42:27.475Z,15.91
2022-10-17T14:45:08.985Z,15.75
2022-10-17T14:47:43.674Z,15.62
2022-10-17T14:50:22.086Z,15.49
2022-10-17T14:53:10.426Z,15.34
2022-10-17T14:56:00.100Z,15.26
2022-10-17T14:58:34.254Z,15.05
2022-10-17T15:01:03.625Z,14.93
2022-10-17T15:03:32.674Z,14.82
2022-10-17T15:06:27.735Z,14.69
2022-10-17T15:09:00.415Z,14.62
2022-10-17T15:11:29.138Z,14.58
2022-10-17T15:14:04.469Z,14.52
2022-10-17T15:16:38.067Z,14.50
2022-10-17T15:19:07.777Z,14.41
2022-10-17T15:21:41.880Z,14.29
2022-10-17T15:24:16.068Z,14.21
2022-10-17T15:26:45.181Z,14.13
2022-10-17T15:29:17.637Z,13.99
2022-10-17T15:31:47.241Z,13.96
2022-10-17T15:34:16.543Z,13.91
2022-10-17T15:36:51.395Z,13.86
2022-10-17T15:39:19.940Z,13.82
2022-10-17T15:41:48.976Z,13.77
2022-10-17T15:44:17.700Z,13.72
2022-10-17T15:46:46.964Z,13.62
2022-10-17T15:49:18.452Z,13.53
2022-10-17T15:51:51.715Z,13.43
2022-10-17T15:54:23.554Z,13.34
2022-10-17T15:56:55.172Z,13.24
2022-10-17T15:59:30.679Z,13.08
2022-10-17T16:01:59.493Z,13.09
2022-10-17T16:04:29.370Z,13.01
2022-10-17T16:06:57.075Z,12.94
2022-10-17T16:09:27.995Z,12.90
2022-10-17T16:11:56.926Z,12.80
2022-10-17T16:14:25.517Z,12.69
2022-10-17T16:16:55.062Z,12.65
2022-10-17T16:19:30.158Z,12.55
2022-10-17T16:22:00.837Z,12.43
2022-10-17T16:24:33.298Z,12.44
2022-10-17T16:27:01.762Z,12.42
2022-10-17T16:29:29.638Z,12.44
2022-10-17T16:31:58.582Z,12.39
2022-10-17T16:34:27.641Z,12.25
2022-10-17T16:36:57.573Z,12.24
2022-10-17T16:41:57.689Z,12.06
2022-10-17T16:44:27.859Z,11.88
2022-10-17T16:46:55.529Z,11.84
2022-10-17T16:49:25.137Z,11.78
2022-10-17T16:51:57.191Z,11.75
2022-10-17T16:54:28.503Z,11.72
2022-10-17T16:57:00.526Z,11.66
2022-10-17T16:59:29.811Z,11.58
2022-10-17T17:01:59.028Z,11.56
2022-10-17T17:04:28.503Z,11.51
2022-10-17T17:06:57.598Z,11.48
2022-10-17T17:09:31.644Z,11.40
2022-10-17T17:11:59.741Z,11.32
2022-10-17T17:14:30.507Z,11.28
2022-10-17T17:16:59.941Z,11.23
2022-10-17T17:19:33.189Z,11.11
2022-10-17T17:22:01.633Z,11.06
2022-10-17T17:24:31.055Z,11.00
2022-10-17T17:26:59.676Z,10.97
2022-10-17T17:29:28.932Z,10.99
2022-10-17T17:31:57.555Z,10.96
2022-10-17T17:34:28.784Z,10.90
2022-10-17T17:36:56.723Z,10.85
2022-10-17T17:39:25.470Z,10.89
2022-10-17T17:41:53.659Z,10.90
2022-10-17T17:44:21.550Z,10.83
2022-10-17T17:46:51.018Z,10.77
2022-10-17T17:49:19.574Z,10.78
2022-10-17T17:51:47.624Z,10.74
2022-10-17T17:54:16.946Z,10.81
2022-10-17T17:56:44.691Z,10.78
2022-10-17T17:59:13.970Z,10.72
2022-10-17T18:01:44.005Z,10.74
2022-10-17T18:04:16.770Z,10.70
2022-10-17T18:06:45.611Z,10.68
2022-10-17T18:09:16.297Z,10.54
2022-10-17T18:11:44.522Z,10.41
2022-10-17T18:14:13.917Z,10.45
2022-10-17T18:16:43.339Z,10.34
2022-10-17T18:19:12.009Z,10.34
2022-10-17T18:21:43.301Z,10.31
2022-10-17T18:24:12.095Z,10.27
2022-10-17T18:26:43.103Z,10.17
2022-10-17T18:29:13.235Z,10.19
2022-10-17T18:31:43.250Z,10.16
2022-10-17T18:34:12.303Z,10.16
2022-10-17T18:36:42.279Z,10.17
2022-10-17T18:39:11.237Z,10.14
2022-10-17T18:41:40.264Z,10.10
2022-10-17T18:44:10.050Z,10.00
2022-10-17T18:46:43.035Z,9.96
2022-10-17T18:49:14.124Z,9.95
2022-10-17T18:51:43.212Z,9.92
2022-10-17T18:54:17.406Z,9.92
2022-10-17T18:56:45.596Z,9.74
2022-10-17T18:59:15.095Z,9.73
2022-10-17T19:01:43.821Z,9.72
2022-10-17T19:04:13.611Z,9.71
2022-10-17T19:06:43.354Z,9.64
2022-10-17T19:09:16.337Z,9.66
2022-10-17T19:11:45.423Z,9.54
2022-10-17T19:14:15.665Z,9.56
2022-10-17T19:16:51.651Z,9.60
2022-10-17T19:19:21.223Z,9.49
2022-10-17T19:21:51.338Z,9.45
2022-10-17T19:24:25.883Z,9.46
2022-10-17T19:26:59.446Z,9.38
2022-10-17T19:29:31.340Z,9.39
2022-10-17T19:32:01.179Z,9.35
2022-10-17T19:34:29.663Z,9.34
2022-10-17T19:36:58.661Z,9.34
2022-10-17T19:39:28.246Z,9.36
2022-10-17T19:41:56.583Z,9.27
2022-10-17T19:44:26.722Z,9.31
2022-10-17T19:46:54.633Z,9.31
2022-10-17T19:49:23.375Z,9.32
2022-10-17T19:51:52.538Z,9.26
2022-10-17T19:54:20.616Z,9.21
2022-10-17T19:56:50.390Z,9.20
2022-10-17T19:59:19.099Z,9.20
2022-10-17T20:01:48.654Z,9.17
2022-10-17T20:04:19.629Z,9.15
2022-10-17T20:06:48.817Z,9.10
2022-10-17T20:09:18.964Z,9.04
2022-10-17T20:11:49.637Z,9.04
2022-10-17T20:14:18.683Z,9.02
2022-10-17T20:16:50.883Z,8.98
2022-10-17T20:19:24.407Z,9.01
2022-10-17T20:21:53.042Z,8.97
2022-10-17T20:24:20.704Z,8.98
2022-10-17T20:26:49.524Z,8.90
2022-10-17T20:29:20.639Z,8.88
2022-10-17T20:31:49.763Z,8.86
2022-10-17T20:34:19.395Z,8.85
2022-10-17T20:36:49.966Z,8.86
2022-10-17T20:39:20.783Z,8.84
2022-10-17T20:41:49.770Z,8.87
2022-10-17T20:44:17.529Z,8.81
2022-10-17T20:47:01.284Z,8.85
2022-10-17T20:49:32.112Z,8.75
2022-10-17T20:52:01.253Z,8.77
2022-10-17T20:54:30.379Z,8.73
2022-10-17T20:57:03.910Z,8.77
2022-10-17T20:59:38.493Z,8.74
2022-10-17T21:02:07.052Z,8.75
2022-10-17T21:04:50.373Z,8.71
2022-10-17T21:07:22.936Z,8.63
2022-10-17T21:09:52.851Z,8.67
2022-10-17T21:12:31.398Z,8.70
2022-10-17T21:15:11.699Z,8.58
2022-10-17T21:17:40.810Z,8.57
2022-10-17T21:20:10.165Z,8.57
2022-10-17T21:22:39.058Z,8.62
2022-10-17T21:25:08.546Z,8.50
2022-10-17T21:27:47.709Z,8.44
2022-10-17T21:30:18.181Z,8.43
2022-10-17T21:32:51.618Z,8.41
2022-10-17T21:35:21.878Z,8.35
2022-10-17T21:37:52.089Z,8.28
2022-10-17T21:40:21.477Z,8.30
2022-10-17T21:42:49.531Z,8.34
2022-10-17T21:45:25.374Z,8.20
2022-10-17T21:48:12.233Z,8.19
2022-10-17T21:50:47.682Z,8.21
2022-10-17T21:53:17.990Z,8.21
2022-10-17T21:55:47.853Z,8.16
2022-10-17T21:58:17.117Z,8.13
2022-10-17T22:00:45.584Z,8.10
2022-10-17T22:03:15.429Z,8.11
2022-10-17T22:05:48.258Z,8.12
2022-10-17T22:08:17.378Z,8.15
2022-10-17T22:10:46.672Z,8.12
2022-10-17T22:13:15.304Z,8.15
2022-10-17T22:15:45.589Z,8.13
2022-10-17T22:18:15.634Z,8.16
2022-10-17T22:20:48.012Z,8.16
2022-10-17T22:23:18.803Z,8.13
2022-10-17T22:25:59.402Z,8.14
2022-10-17T22:28:30.183Z,8.09
2022-10-17T22:30:58.768Z,8.07
2022-10-17T22:33:28.305Z,8.04
2022-10-17T22:35:56.061Z,7.91
2022-10-17T22:38:25.200Z,7.91
2022-10-17T22:40:56.207Z,7.95
2022-10-17T22:43:24.681Z,7.98
2022-10-17T22:45:55.835Z,7.91
2022-10-17T22:48:26.062Z,7.90
2022-10-17T22:51:00.745Z,7.89
2022-10-17T22:53:30.003Z,7.89
2022-10-17T22:56:08.426Z,7.89
2022-10-17T22:58:38.417Z,7.80
2022-10-17T23:01:21.307Z,7.78
2022-10-17T23:03:52.192Z,7.71
2022-10-17T23:06:26.348Z,7.71
2022-10-17T23:08:56.171Z,7.72
2022-10-17T23:11:27.349Z,7.70
2022-10-17T23:13:56.722Z,7.69
2022-10-17T23:16:35.492Z,7.61
2022-10-17T23:19:07.215Z,7.70
2022-10-17T23:21:38.389Z,7.76
2022-10-17T23:24:06.894Z,7.79
2022-10-17T23:26:37.265Z,7.85
2022-10-17T23:29:05.867Z,7.92
2022-10-17T23:31:38.408Z,7.92
2022-10-17T23:34:08.055Z,7.90
2022-10-17T23:36:39.813Z,7.87
2022-10-17T23:39:07.846Z,7.82
2022-10-17T23:41:37.407Z,7.90
2022-10-17T23:44:06.913Z,7.93
2022-10-17T23:46:35.653Z,7.87
2022-10-17T23:49:06.200Z,7.85
2022-10-17T23:51:37.503Z,7.89
2022-10-17T23:54:05.642Z,7.76
2022-10-17T23:56:37.151Z,7.82
2022-10-17T23:59:06.445Z,7.83
